Time;durP1;ratioP1;P1;durP2;ratioP2;P2;SDS_P1;SDS_P2;PMS_P1;PMS_P2;Temp;Humidity;BMP_temperature;BMP_pressure;BME280_temperature;BME280_humidity;BME280_pressure;Samples;Min_cycle;Max_cycle;Signal;HPM_P1;HPM_P2
2023/08/08 00:02:11;;;;;;;;;4.25;2.25;;;;;20.55;43.91;101375.22;5040545;28;45333;-63
2023/08/08 00:04:37;;;;;;;;;3.00;2.00;;;;;20.53;44.22;101382.44;5040603;28;45218;-64
2023/08/08 00:07:02;;;;;;;;;5.00;3.25;;;;;20.53;43.91;101387.78;5040644;28;45399;-63
2023/08/08 00:09:28;;;;;;;;;3.25;2.25;;;;;20.49;44.26;101376.38;5040700;28;45209;-65
2023/08/08 00:11:53;;;;;;;;;3.00;3.00;;;;;20.48;43.94;101365.75;5040161;28;45336;-65
2023/08/08 00:14:18;;;;;;;;;2.25;2.25;;;;;20.49;44.35;101367.47;5040493;28;45169;-64
2023/08/08 00:16:43;;;;;;;;;5.25;2.25;;;;;20.45;44.18;101364.97;5038978;28;49512;-64
2023/08/08 00:19:09;;;;;;;;;5.00;3.25;;;;;20.46;44.74;101372.03;5040147;28;48373;-64
2023/08/08 00:21:34;;;;;;;;;4.75;4.00;;;;;20.42;44.82;101370.44;5038628;28;47659;-65
2023/08/08 00:23:59;;;;;;;;;3.00;3.00;;;;;20.39;44.30;101370.59;5027127;28;45254;-64
2023/08/08 00:26:25;;;;;;;;;4.50;3.00;;;;;20.40;44.86;101375.00;5026818;28;45238;-64
2023/08/08 00:28:50;;;;;;;;;4.75;4.25;;;;;20.38;44.90;101376.00;5039734;28;45525;-64
2023/08/08 00:31:17;;;;;;;;;3.75;3.25;;;;;20.37;44.97;101380.44;5040036;28;47914;-64
2023/08/08 00:33:43;;;;;;;;;3.50;2.00;;;;;20.35;44.47;101382.34;5039846;28;45373;-64
2023/08/08 00:36:08;;;;;;;;;4.50;3.50;;;;;20.30;44.77;101374.53;5040074;28;45340;-64
2023/08/08 00:38:33;;;;;;;;;4.00;4.00;;;;;20.29;44.60;101375.47;5040137;28;45362;-64
2023/08/08 00:40:59;;;;;;;;;2.75;2.75;;;;;20.30;44.93;101368.31;5039771;28;46086;-64
2023/08/08 00:43:24;;;;;;;;;3.25;3.00;;;;;20.29;44.44;101363.94;5040183;28;45380;-64
2023/08/08 00:45:49;;;;;;;;;3.50;2.00;;;;;20.29;44.66;101364.78;5039928;28;45402;-64
2023/08/08 00:48:15;;;;;;;;;3.75;3.75;;;;;20.29;45.10;101363.94;5039812;28;45606;-64
2023/08/08 00:50:43;;;;;;;;;5.00;3.00;;;;;20.28;45.06;101352.38;5038411;28;45339;-65
2023/08/08 00:53:08;;;;;;;;;3.00;3.00;;;;;20.28;45.03;101351.53;5039915;28;45301;-65
2023/08/08 00:55:33;;;;;;;;;5.50;4.50;;;;;20.27;45.16;101353.31;5039700;28;45395;-64
2023/08/08 00:57:59;;;;;;;;;7.50;5.00;;;;;20.27;44.77;101341.78;5039816;28;45172;-64
2023/08/08 01:00:24;;;;;;;;;3.25;3.25;;;;;20.27;45.10;101344.44;5037852;28;46944;-64
2023/08/08 01:02:50;;;;;;;;;0.75;0.75;;;;;20.24;44.63;101336.59;5039791;28;45263;-64
2023/08/08 01:05:15;;;;;;;;;3.00;3.00;;;;;20.24;45.42;101340.13;5039591;28;45285;-64
2023/08/08 01:07:54;;;;;;;;;4.75;3.25;;;;;20.23;44.74;101337.53;5039968;28;45407;-64
2023/08/08 01:10:33;;;;;;;;;7.25;3.00;;;;;20.22;44.98;101330.44;5039090;28;45288;-65
2023/08/08 01:13:10;;;;;;;;;3.00;3.00;;;;;20.20;45.25;101332.31;5039572;28;45202;-64
2023/08/08 01:15:37;;;;;;;;;2.25;2.25;;;;;20.17;44.99;101337.81;5039848;28;45450;-64
2023/08/08 01:18:08;;;;;;;;;4.25;4.25;;;;;20.17;44.85;101344.00;5039687;28;45338;-64
2023/08/08 01:20:34;;;;;;;;;4.00;4.00;;;;;20.14;45.37;101336.13;5039496;28;45228;-64
2023/08/08 01:23:12;;;;;;;;;4.25;4.25;;;;;20.07;45.34;101322.19;5021465;28;45163;-64
2023/08/08 01:25:40;;;;;;;;;4.75;3.75;;;;;20.12;45.11;101333.56;5039501;28;45328;-64
2023/08/08 01:28:07;;;;;;;;;5.75;5.25;;;;;20.08;45.50;101329.25;5039253;28;45369;-64
2023/08/08 01:30:32;;;;;;;;;6.00;4.75;;;;;20.08;45.18;101334.59;5039352;28;45253;-64
2023/08/08 01:32:58;;;;;;;;;4.50;4.00;;;;;20.07;45.34;101330.19;5039172;28;45289;-64
2023/08/08 01:35:28;;;;;;;;;3.25;3.00;;;;;20.05;45.75;101340.09;5039249;28;45403;-64
2023/08/08 01:38:00;;;;;;;;;2.25;2.25;;;;;20.02;45.77;101332.19;5039363;28;45350;-64
2023/08/08 01:40:28;;;;;;;;;5.00;5.00;;;;;20.02;45.90;101340.22;5021359;28;47447;-64
2023/08/08 01:42:55;;;;;;;;;2.00;2.00;;;;;20.00;45.91;101339.44;5042440;28;45325;-64
2023/08/08 01:45:21;;;;;;;;;4.50;4.50;;;;;19.98;45.93;101343.94;5042714;28;45316;-64
2023/08/08 01:47:50;;;;;;;;;4.00;4.00;;;;;19.97;45.54;101344.88;5042768;28;45554;-64
2023/08/08 01:50:16;;;;;;;;;4.00;4.00;;;;;19.94;45.87;101353.03;5042474;28;46338;-64
2023/08/08 01:52:41;;;;;;;;;2.00;2.00;;;;;19.89;45.62;101339.88;5042678;28;45292;-64
2023/08/08 01:55:07;;;;;;;;;5.25;4.00;;;;;19.92;46.13;101347.78;5042562;28;45376;-64
2023/08/08 01:57:32;;;;;;;;;7.00;5.00;;;;;19.86;46.02;101345.38;5042684;28;45500;-64
2023/08/08 01:59:58;;;;;;;;;7.25;5.00;;;;;19.89;45.82;101347.03;5042475;28;49928;-64
2023/08/08 02:02:23;;;;;;;;;4.25;3.25;;;;;19.88;45.83;101350.63;5042509;28;45308;-64
2023/08/08 02:04:48;;;;;;;;;3.00;3.00;;;;;19.85;46.05;101340.97;5042378;28;45353;-64
2023/08/08 02:07:14;;;;;;;;;4.00;4.00;;;;;19.85;45.88;101342.75;5042526;28;46290;-65
2023/08/08 02:09:39;;;;;;;;;5.25;3.00;;;;;19.84;45.80;101341.88;5024505;28;47006;-64
2023/08/08 02:12:05;;;;;;;;;6.00;5.00;;;;;19.81;46.23;101348.19;5042317;28;45295;-64
2023/08/08 02:14:30;;;;;;;;;3.50;3.50;;;;;19.80;46.11;101335.78;5042557;28;45318;-64
2023/08/08 02:16:55;;;;;;;;;5.00;3.75;;;;;19.78;46.40;101336.78;5042339;28;45266;-64
2023/08/08 02:19:21;;;;;;;;;4.25;3.00;;;;;19.77;46.45;101330.59;5041763;28;52292;-64
2023/08/08 02:21:46;;;;;;;;;5.50;4.75;;;;;19.74;46.58;101330.72;5042150;28;45442;-64
2023/08/08 02:24:11;;;;;;;;;3.00;3.00;;;;;19.75;46.52;101337.78;5042246;28;45209;-64
2023/08/08 02:26:37;;;;;;;;;4.25;4.25;;;;;19.72;46.03;101323.72;5042224;28;45280;-64
2023/08/08 02:29:02;;;;;;;;;4.00;4.00;;;;;19.74;46.21;101328.06;5040628;28;45944;-64
2023/08/08 02:31:27;;;;;;;;;3.25;3.25;;;;;19.73;46.45;101317.47;5042289;28;45234;-64
2023/08/08 02:33:53;;;;;;;;;5.50;5.00;;;;;19.72;46.60;101318.38;5023898;28;45466;-64
2023/08/08 02:36:18;;;;;;;;;5.00;4.00;;;;;19.69;46.62;101308.72;5042128;28;45202;-64
2023/08/08 02:38:44;;;;;;;;;4.00;4.00;;;;;19.67;46.95;101307.91;5024134;28;48111;-64
2023/08/08 02:41:10;;;;;;;;;4.25;4.25;;;;;19.69;46.17;101308.72;5023981;28;45285;-64
2023/08/08 02:43:35;;;;;;;;;4.00;4.00;;;;;19.69;46.33;101306.06;5041909;28;45403;-64
2023/08/08 02:46:00;;;;;;;;;5.50;4.50;;;;;19.66;46.83;101298.22;5041870;28;50976;-64
2023/08/08 02:48:27;;;;;;;;;5.25;4.25;;;;;19.68;46.50;101308.81;5041720;28;45804;-64
2023/08/08 02:50:52;;;;;;;;;6.00;6.00;;;;;19.67;46.89;101305.25;5040592;28;45577;-64
2023/08/08 02:53:17;;;;;;;;;3.00;3.00;;;;;19.68;46.60;101311.47;5041376;28;45405;-64
2023/08/08 02:55:42;;;;;;;;;2.25;1.50;;;;;19.67;46.58;101310.59;5041574;28;49077;-64
2023/08/08 02:58:08;;;;;;;;;7.50;4.50;;;;;19.65;46.93;101310.66;5041667;28;46018;-64
2023/08/08 03:00:33;;;;;;;;;6.50;5.00;;;;;19.67;46.95;101323.91;5041789;28;45322;-64
2023/08/08 03:02:59;;;;;;;;;2.50;2.50;;;;;19.66;46.94;101322.19;5040742;28;45464;-64
2023/08/08 03:05:24;;;;;;;;;3.25;3.25;;;;;19.63;46.42;101322.31;5040098;28;45629;-64
2023/08/08 03:07:50;;;;;;;;;5.50;5.00;;;;;19.63;46.76;101328.53;5041475;28;45364;-64
2023/08/08 03:10:15;;;;;;;;;4.50;4.50;;;;;19.62;46.88;101323.25;5041027;28;50767;-64
2023/08/08 03:12:41;;;;;;;;;3.25;2.25;;;;;19.61;47.30;101321.53;5040378;28;45282;-64
2023/08/08 03:15:07;;;;;;;;;4.00;4.00;;;;;19.58;46.98;101322.50;5041219;28;45529;-64
2023/08/08 03:17:33;;;;;;;;;6.75;4.00;;;;;19.58;46.85;101325.16;5041411;28;46129;-64
2023/08/08 03:19:58;;;;;;;;;2.75;2.75;;;;;19.54;47.12;101320.06;5041068;28;45262;-64
2023/08/08 03:22:23;;;;;;;;;4.00;4.00;;;;;19.55;46.98;101322.66;5041357;28;45259;-64
2023/08/08 03:24:48;;;;;;;;;6.00;4.75;;;;;19.50;46.94;101316.66;5038871;28;45178;-64
2023/08/08 03:27:14;;;;;;;;;4.00;4.00;;;;;19.52;47.39;101319.25;5028930;28;47661;-64
2023/08/08 03:29:39;;;;;;;;;4.75;4.00;;;;;19.48;47.52;101313.19;5020920;28;51756;-64
2023/08/08 03:32:06;;;;;;;;;5.25;4.50;;;;;19.50;47.62;101311.31;5021591;28;45234;-64
2023/08/08 03:34:31;;;;;;;;;3.50;3.50;;;;;19.48;47.10;101306.06;5002890;28;45586;-64
2023/08/08 03:36:56;;;;;;;;;5.00;5.00;;;;;19.46;47.20;101299.06;5021078;28;49338;-64
2023/08/08 03:39:22;;;;;;;;;5.00;5.00;;;;;19.46;47.15;101307.06;5021138;28;45471;-64
2023/08/08 03:41:47;;;;;;;;;6.25;5.00;;;;;19.45;47.43;101311.50;5021194;28;45428;-64
2023/08/08 03:44:12;;;;;;;;;3.00;3.00;;;;;19.42;47.35;101306.31;5020984;28;45385;-64
2023/08/08 03:46:38;;;;;;;;;5.75;4.50;;;;;19.44;47.59;101317.75;5020945;28;46014;-64
2023/08/08 03:49:03;;;;;;;;;1.00;1.00;;;;;19.42;47.23;101311.66;5020710;28;45432;-64
2023/08/08 03:51:29;;;;;;;;;4.50;4.50;;;;;19.41;47.71;101320.56;5021402;28;45293;-64
2023/08/08 03:53:54;;;;;;;;;5.25;5.25;;;;;19.42;47.77;101321.44;5020705;28;45310;-64
2023/08/08 03:56:19;;;;;;;;;4.25;3.75;;;;;19.40;47.53;101316.16;5020788;28;46060;-64
2023/08/08 03:58:45;;;;;;;;;5.25;4.00;;;;;19.39;47.55;101325.09;5025761;28;46889;-64
2023/08/08 04:01:10;;;;;;;;;4.50;4.50;;;;;19.37;47.95;101321.66;5041148;28;45294;-64
2023/08/08 04:03:37;;;;;;;;;5.50;4.50;;;;;19.37;47.73;101326.97;5033279;28;45466;-63
2023/08/08 04:06:02;;;;;;;;;3.00;3.00;;;;;19.34;47.92;101329.75;5020666;28;45306;-63
2023/08/08 04:08:27;;;;;;;;;6.25;5.00;;;;;19.33;47.93;101331.56;5020718;28;45163;-63
2023/08/08 04:10:53;;;;;;;;;4.00;4.00;;;;;19.28;47.69;101332.66;5020746;28;45250;-63
2023/08/08 04:13:19;;;;;;;;;7.25;4.50;;;;;19.28;47.56;101343.31;5034796;28;45250;-63
2023/08/08 04:15:44;;;;;;;;;7.25;6.25;;;;;19.25;48.16;101341.66;5040351;28;45222;-63
2023/08/08 04:18:09;;;;;;;;;5.00;5.00;;;;;19.23;48.13;101340.88;5040163;28;45258;-63
2023/08/08 04:20:35;;;;;;;;;4.75;4.75;;;;;19.23;47.90;101338.22;5040372;28;51147;-63
2023/08/08 04:23:00;;;;;;;;;6.50;4.00;;;;;19.19;48.40;101333.91;5040164;28;45461;-63
2023/08/08 04:25:26;;;;;;;;;7.25;5.50;;;;;19.19;47.81;101333.06;5040255;28;46094;-63
2023/08/08 04:27:52;;;;;;;;;6.50;4.00;;;;;19.15;48.45;101329.66;5040226;28;45366;-63
2023/08/08 04:30:17;;;;;;;;;4.00;2.25;;;;;19.17;48.29;101335.78;5040658;28;45415;-63
2023/08/08 04:32:42;;;;;;;;;6.25;4.75;;;;;19.14;47.80;101326.13;5040214;28;45522;-63
2023/08/08 04:35:08;;;;;;;;;5.00;5.00;;;;;19.14;48.29;101334.13;5039968;28;45296;-63
2023/08/08 04:37:33;;;;;;;;;6.00;4.00;;;;;19.07;48.33;101324.63;5040028;28;45359;-63
2023/08/08 04:39:58;;;;;;;;;4.25;4.25;;;;;19.13;48.12;101335.03;5040279;28;45304;-63
2023/08/08 04:42:24;;;;;;;;;3.00;3.00;;;;;19.12;48.58;101341.28;5035917;28;45345;-63
2023/08/08 04:44:49;;;;;;;;;5.25;5.25;;;;;19.08;48.16;101328.16;5029940;28;45294;-63
2023/08/08 04:47:14;;;;;;;;;7.75;5.00;;;;;19.06;48.05;101336.22;5019722;28;55234;-63
2023/08/08 04:49:40;;;;;;;;;4.75;4.75;;;;;19.07;48.18;101343.28;5020121;28;45317;-63
2023/08/08 04:52:05;;;;;;;;;6.00;6.00;;;;;19.06;48.41;101343.34;5020021;28;45448;-65
2023/08/08 04:54:31;;;;;;;;;5.75;4.25;;;;;19.06;48.33;101343.34;5019943;28;45421;-64
2023/08/08 04:56:56;;;;;;;;;5.25;5.25;;;;;19.00;48.20;101333.78;5019719;28;45393;-64
2023/08/08 04:59:21;;;;;;;;;7.25;5.25;;;;;19.03;48.57;101340.78;5030373;28;45296;-64
2023/08/08 05:01:46;;;;;;;;;4.75;4.25;;;;;18.98;48.64;101336.53;5039818;28;45427;-65
2023/08/08 05:04:12;;;;;;;;;6.50;5.00;;;;;19.00;48.42;101339.13;5027956;28;56661;-64
2023/08/08 05:06:37;;;;;;;;;2.00;2.00;;;;;18.98;48.54;101332.97;5019893;28;45238;-64
2023/08/08 05:09:03;;;;;;;;;5.00;5.00;;;;;18.98;48.53;101327.66;5020353;28;45224;-65
2023/08/08 05:11:28;;;;;;;;;7.00;6.00;;;;;18.97;48.60;101331.28;5019633;28;45690;-64
2023/08/08 05:13:54;;;;;;;;;22.25;17.75;;;;;18.95;48.95;101333.13;5038580;28;45380;-64
2023/08/08 05:16:19;;;;;;;;;6.00;5.00;;;;;18.93;48.45;101327.84;5039624;28;45167;-64
2023/08/08 05:18:45;;;;;;;;;4.00;4.00;;;;;18.93;48.57;101319.88;5039669;28;45181;-64
2023/08/08 05:21:11;;;;;;;;;7.25;3.50;;;;;18.94;48.89;101326.06;5031697;28;45304;-64
2023/08/08 05:23:36;;;;;;;;;4.25;3.25;;;;;18.94;48.97;101331.38;5019521;28;45311;-64
2023/08/08 05:26:01;;;;;;;;;6.00;5.00;;;;;18.93;49.02;101329.63;5019474;28;45348;-64
2023/08/08 05:28:27;;;;;;;;;7.00;5.50;;;;;18.87;48.85;101327.19;5019869;28;45321;-64
2023/08/08 05:30:52;;;;;;;;;7.00;5.75;;;;;18.88;49.33;101329.81;5019485;28;45365;-64
2023/08/08 05:33:17;;;;;;;;;6.50;6.00;;;;;18.90;49.13;101327.06;5019343;28;45274;-64
2023/08/08 05:35:43;;;;;;;;;9.50;9.00;;;;;18.87;49.00;101327.19;5019502;28;45436;-64
2023/08/08 05:38:08;;;;;;;;;8.00;7.00;;;;;18.84;49.02;101329.06;5019904;28;45642;-64
2023/08/08 05:40:36;;;;;;;;;6.00;6.00;;;;;18.83;49.11;101322.00;5018187;28;45316;-64
2023/08/08 05:43:03;;;;;;;;;11.25;8.00;;;;;18.84;49.45;101330.84;5019536;28;45301;-65
2023/08/08 05:45:28;;;;;;;;;6.50;5.00;;;;;18.85;49.17;101329.91;5019156;28;45423;-64
2023/08/08 05:47:55;;;;;;;;;4.00;4.00;;;;;18.84;49.17;101333.50;5019244;28;45428;-65
2023/08/08 05:50:20;;;;;;;;;5.75;5.75;;;;;18.82;49.47;101330.91;5019323;28;45250;-64
2023/08/08 05:52:46;;;;;;;;;10.50;7.25;;;;;18.80;49.54;101335.44;5019551;28;45234;-64
2023/08/08 05:55:11;;;;;;;;;7.00;7.00;;;;;18.83;49.69;101337.13;5017587;28;45610;-64
2023/08/08 05:57:37;;;;;;;;;10.75;8.00;;;;;18.84;49.50;101344.16;5019555;28;45388;-64
2023/08/08 06:00:03;;;;;;;;;8.25;6.75;;;;;18.83;49.32;101340.63;5035086;28;45375;-64
2023/08/08 06:02:29;;;;;;;;;6.75;6.75;;;;;18.84;49.37;101344.16;5039028;28;45265;-64
2023/08/08 06:04:54;;;;;;;;;8.25;7.00;;;;;18.84;49.49;101342.38;5038588;28;45315;-64
2023/08/08 06:07:19;;;;;;;;;7.75;5.75;;;;;18.86;49.24;101347.63;5039481;28;45379;-64
2023/08/08 06:09:45;;;;;;;;;6.50;6.50;;;;;18.88;49.64;101345.78;5038999;28;45831;-64
2023/08/08 06:12:10;;;;;;;;;6.25;5.25;;;;;18.89;49.83;101343.97;5037449;28;48130;-64
2023/08/08 06:14:35;;;;;;;;;4.25;4.25;;;;;18.91;49.60;101344.81;5038813;28;45308;-64
2023/08/08 06:17:01;;;;;;;;;8.25;5.25;;;;;18.92;49.76;101343.91;5038335;28;45594;-64
2023/08/08 06:19:26;;;;;;;;;4.50;4.50;;;;;18.94;50.06;101347.34;5038699;28;45404;-64
2023/08/08 06:21:51;;;;;;;;;6.00;5.00;;;;;18.96;49.82;101340.19;5038544;28;45546;-65
2023/08/08 06:24:17;;;;;;;;;5.00;5.00;;;;;18.95;50.04;101346.44;5038789;28;45697;-64
2023/08/08 06:26:42;;;;;;;;;6.75;6.25;;;;;18.98;50.29;101351.63;5038848;28;45341;-64
2023/08/08 06:29:07;;;;;;;;;7.75;6.50;;;;;18.98;50.36;101340.97;5042063;28;45199;-64
2023/08/08 06:31:33;;;;;;;;;5.25;5.00;;;;;19.02;49.93;101342.59;5042407;28;45278;-64
2023/08/08 06:33:58;;;;;;;;;8.00;8.00;;;;;19.06;50.21;101352.19;5034074;28;45851;-64
2023/08/08 06:36:23;;;;;;;;;7.00;6.00;;;;;19.08;50.19;101338.81;5022361;28;45478;-64
2023/08/08 06:38:49;;;;;;;;;7.75;7.25;;;;;19.09;50.31;101336.06;5022376;28;45439;-64
2023/08/08 06:41:14;;;;;;;;;5.75;5.25;;;;;19.12;50.26;101351.09;5021765;28;51061;-64
2023/08/08 06:43:39;;;;;;;;;8.25;6.50;;;;;19.13;50.37;101350.16;5021907;28;45300;-64
2023/08/08 06:46:05;;;;;;;;;6.00;5.25;;;;;19.12;50.17;101343.97;5022098;28;45421;-64
2023/08/08 06:48:30;;;;;;;;;5.50;5.00;;;;;19.16;50.52;101355.38;5020593;28;45439;-64
2023/08/08 06:50:55;;;;;;;;;1.25;1.00;;;;;19.18;50.50;101348.16;5021840;28;45235;-64
2023/08/08 06:53:21;;;;;;;;;3.50;2.50;;;;;19.15;50.63;101351.81;5021709;28;47052;-64
2023/08/08 06:55:46;;;;;;;;;7.25;5.50;;;;;19.17;50.59;101344.63;5021957;28;45907;-64
2023/08/08 06:58:11;;;;;;;;;7.25;4.50;;;;;19.17;50.43;101343.78;5022403;28;45326;-64
2023/08/08 07:00:37;;;;;;;;;2.00;2.00;;;;;19.19;50.60;101349.03;5034492;28;45266;-65
2023/08/08 07:03:02;;;;;;;;;3.00;2.00;;;;;19.15;50.57;101343.81;5029520;28;45402;-64
2023/08/08 07:05:29;;;;;;;;;3.50;3.50;;;;;19.19;50.41;101344.56;5041842;28;45301;-64
2023/08/08 07:07:54;;;;;;;;;4.00;2.00;;;;;19.21;50.60;101341.88;5041477;28;45377;-64
2023/08/08 07:10:19;;;;;;;;;1.50;1.50;;;;;19.23;50.33;101350.66;5041284;28;46028;-64
2023/08/08 07:12:45;;;;;;;;;2.00;2.00;;;;;19.21;50.33;101337.38;5041330;28;45564;-64
2023/08/08 07:15:11;;;;;;;;;3.00;3.00;;;;;19.25;50.36;101343.47;5041424;28;45337;-64
2023/08/08 07:17:37;;;;;;;;;2.25;2.25;;;;;19.28;50.28;101353.97;5023142;28;45383;-64
2023/08/08 07:20:02;;;;;;;;;3.50;2.00;;;;;19.31;50.24;101346.72;5040239;28;45307;-64
2023/08/08 07:22:27;;;;;;;;;1.75;1.75;;;;;19.33;50.46;101339.56;5041114;28;45245;-64
2023/08/08 07:24:53;;;;;;;;;3.00;2.00;;;;;19.38;50.53;101336.69;5041217;28;45316;-65
2023/08/08 07:27:18;;;;;;;;;2.50;2.50;;;;;19.42;50.14;101340.97;5041206;28;45466;-65
2023/08/08 07:29:44;;;;;;;;;3.00;3.00;;;;;19.45;50.41;101339.97;5041239;28;46113;-65
2023/08/08 07:32:09;;;;;;;;;25.25;21.50;;;;;19.50;50.43;101340.66;5041049;28;45166;-64
2023/08/08 07:34:34;;;;;;;;;2.50;2.50;;;;;19.54;49.94;101336.06;5040995;28;45290;-64
2023/08/08 07:37:00;;;;;;;;;1.00;1.00;;;;;19.62;50.36;101331.25;5040912;28;45219;-65
2023/08/08 07:39:25;;;;;;;;;4.25;4.00;;;;;19.67;50.12;101333.72;5039843;28;45867;-65
2023/08/08 07:41:51;;;;;;;;;2.00;2.00;;;;;19.71;50.17;101333.53;5040871;28;45249;-65
2023/08/08 07:44:17;;;;;;;;;3.00;3.00;;;;;19.77;50.41;101337.72;5040962;28;45277;-65
2023/08/08 07:46:42;;;;;;;;;4.75;3.25;;;;;19.81;50.25;101332.19;5040784;28;45345;-65
2023/08/08 07:49:09;;;;;;;;;3.50;3.00;;;;;19.86;49.70;101329.38;5040465;28;45325;-65
2023/08/08 07:51:35;;;;;;;;;3.00;3.00;;;;;19.89;49.75;101331.88;5040736;28;45282;-65
2023/08/08 07:54:00;;;;;;;;;2.75;2.75;;;;;19.95;50.00;101320.09;5040921;28;45418;-65
2023/08/08 07:56:26;;;;;;;;;2.00;2.00;;;;;20.00;50.02;101328.75;5040485;28;45404;-65
2023/08/08 07:58:51;;;;;;;;;1.50;1.50;;;;;20.04;49.93;101329.50;5039837;28;45361;-65
2023/08/08 08:01:17;;;;;;;;;2.75;2.75;;;;;20.07;49.84;101332.00;5040729;28;45405;-65
2023/08/08 08:03:43;;;;;;;;;1.75;1.75;;;;;20.09;49.92;101339.00;5040352;28;45161;-65
2023/08/08 08:06:08;;;;;;;;;3.00;3.00;;;;;20.12;49.94;101330.00;5040500;28;45413;-65
2023/08/08 08:08:33;;;;;;;;;2.75;2.75;;;;;20.18;49.86;101324.38;5040358;28;45301;-65
2023/08/08 08:10:59;;;;;;;;;2.00;2.00;;;;;20.22;49.62;101320.63;5040467;28;45253;-65
2023/08/08 08:13:24;;;;;;;;;1.00;1.00;;;;;20.26;49.19;101318.69;5040318;28;45573;-65
2023/08/08 08:15:49;;;;;;;;;2.50;1.75;;;;;20.32;49.25;101321.09;5040618;28;45462;-65
2023/08/08 08:18:16;;;;;;;;;1.50;1.25;;;;;20.36;49.20;101322.66;5040091;28;46306;-65
2023/08/08 08:20:43;;;;;;;;;3.75;2.00;;;;;20.39;49.56;101306.53;5040470;28;45461;-65
2023/08/08 08:23:08;;;;;;;;;2.75;2.25;;;;;20.46;48.82;101320.44;5040081;28;45405;-65
2023/08/08 08:25:34;;;;;;;;;6.00;3.25;;;;;20.51;48.89;101317.56;5038736;28;45350;-65
2023/08/08 08:28:00;;;;;;;;;2.00;2.00;;;;;20.54;49.37;101326.31;5040121;28;46865;-65
2023/08/08 08:30:26;;;;;;;;;2.25;2.25;;;;;20.60;48.78;101317.13;5038498;28;56340;-65
2023/08/08 08:32:52;;;;;;;;;2.00;2.00;;;;;20.62;49.28;101315.25;5040017;28;45254;-65
2023/08/08 08:35:17;;;;;;;;;5.00;2.50;;;;;20.66;49.14;101314.16;5030443;28;45852;-65
2023/08/08 08:37:42;;;;;;;;;2.00;2.00;;;;;20.67;48.64;101310.56;5021114;28;46133;-65
2023/08/08 08:40:09;;;;;;;;;1.00;1.00;;;;;20.72;49.00;101307.72;5018877;28;45349;-65
2023/08/08 08:42:34;;;;;;;;;1.25;1.25;;;;;20.75;48.93;101315.56;5020210;28;45184;-65
2023/08/08 08:45:02;;;;;;;;;1.00;1.00;;;;;20.76;48.72;101310.13;5020158;28;45171;-64
2023/08/08 08:47:30;;;;;;;;;3.00;2.00;;;;;20.80;48.34;101304.66;5019911;28;45921;-65
2023/08/08 08:49:57;;;;;;;;;1.00;1.00;;;;;20.78;48.57;101308.28;5019194;28;45417;-65
2023/08/08 08:52:23;;;;;;;;;2.25;1.25;;;;;20.83;48.13;101313.41;5019895;28;45250;-65
2023/08/08 08:54:50;;;;;;;;;1.50;1.50;;;;;20.86;48.32;101307.91;5019547;28;45594;-65
2023/08/08 08:57:15;;;;;;;;;1.00;1.00;;;;;20.88;47.85;101308.69;5019815;28;46152;-65
2023/08/08 08:59:40;;;;;;;;;1.75;1.75;;;;;20.91;48.14;101315.69;5031503;28;45448;-65
2023/08/08 09:02:07;;;;;;;;;4.00;2.75;;;;;20.91;48.00;101319.22;5022312;28;45402;-65
2023/08/08 09:04:34;;;;;;;;;3.00;1.00;;;;;20.94;47.50;101331.56;5039576;28;45332;-65
2023/08/08 09:07:00;;;;;;;;;3.00;2.00;;;;;20.97;47.80;101319.84;5039402;28;46144;-65
2023/08/08 09:09:26;;;;;;;;;2.75;1.00;;;;;21.00;47.11;101317.06;5039627;28;45365;-65
2023/08/08 09:11:56;;;;;;;;;3.50;1.25;;;;;21.02;47.69;101320.50;5039356;28;45345;-65
2023/08/08 09:14:23;;;;;;;;;2.25;2.25;;;;;21.01;47.04;101313.44;5039491;28;45414;-65
2023/08/08 09:16:50;;;;;;;;;1.00;1.00;;;;;21.04;47.50;101319.50;5039373;28;46057;-65
2023/08/08 09:19:17;;;;;;;;;1.75;1.50;;;;;21.07;47.29;101318.50;5039148;28;45323;-65
2023/08/08 09:21:43;;;;;;;;;1.75;1.75;;;;;21.09;47.11;101324.59;5039339;28;45241;-65
2023/08/08 09:24:09;;;;;;;;;1.25;1.00;;;;;21.11;46.70;101318.25;5039423;28;45309;-65
2023/08/08 09:26:34;;;;;;;;;2.25;1.50;;;;;21.11;46.87;101312.91;5039413;28;45398;-65
2023/08/08 09:29:01;;;;;;;;;2.00;1.00;;;;;21.13;46.97;101312.84;5039342;28;45287;-65
2023/08/08 09:31:26;;;;;;;;;2.00;2.00;;;;;21.17;46.98;101310.84;5039557;28;45413;-65
2023/08/08 09:33:54;;;;;;;;;2.25;2.25;;;;;21.21;46.67;101310.63;5038930;28;45738;-65
2023/08/08 09:36:19;;;;;;;;;1.25;1.25;;;;;21.25;46.78;101306.00;5039384;28;45340;-65
2023/08/08 09:38:45;;;;;;;;;2.00;2.00;;;;;21.32;46.86;101303.88;5039129;28;45424;-65
2023/08/08 09:41:11;;;;;;;;;1.00;1.00;;;;;21.36;46.60;101305.47;5039487;28;45309;-65
2023/08/08 09:43:36;;;;;;;;;5.00;1.00;;;;;21.41;46.56;101304.28;5039109;28;45429;-65
2023/08/08 09:46:02;;;;;;;;;1.00;1.00;;;;;21.45;47.29;101296.97;5039231;28;46202;-65
2023/08/08 09:48:31;;;;;;;;;3.25;2.25;;;;;21.53;46.84;101291.22;5038521;28;45242;-65
2023/08/08 09:51:01;;;;;;;;;1.75;1.75;;;;;21.61;47.20;101299.78;5039411;28;45575;-65
2023/08/08 09:53:27;;;;;;;;;3.75;1.50;;;;;21.69;47.03;101294.88;5039078;28;45345;-65
2023/08/08 09:55:55;;;;;;;;;1.50;1.50;;;;;21.74;46.46;101273.25;5038692;28;45464;-65
2023/08/08 09:58:20;;;;;;;;;1.00;1.00;;;;;21.83;46.53;101288.78;5037567;28;45273;-65
2023/08/08 10:00:49;;;;;;;;;2.25;1.25;;;;;21.92;46.04;101280.28;5039146;28;45306;-65
2023/08/08 10:03:14;;;;;;;;;2.25;2.00;;;;;21.96;46.74;101269.41;5040807;28;45337;-65
2023/08/08 10:05:39;;;;;;;;;2.00;2.00;;;;;22.09;46.54;101278.53;5013062;28;45945;-65
2023/08/08 10:08:06;;;;;;;;;1.00;1.00;;;;;22.21;46.61;101268.94;5027272;28;45278;-65
2023/08/08 10:10:32;;;;;;;;;3.00;1.00;;;;;22.38;46.45;101279.63;5022551;28;45239;-65
2023/08/08 10:12:57;;;;;;;;;4.00;1.25;;;;;22.54;46.48;101271.59;5033786;28;45494;-65
2023/08/08 10:15:27;;;;;;;;;2.50;2.00;;;;;22.72;46.33;101264.31;5042273;28;45317;-65
2023/08/08 10:17:56;;;;;;;;;1.00;1.00;;;;;22.96;46.65;101282.63;5041152;28;45455;-65
2023/08/08 10:20:21;;;;;;;;;2.75;2.75;;;;;23.23;46.30;101276.63;5042387;28;45403;-66
2023/08/08 10:22:47;;;;;;;;;3.25;3.00;;;;;23.50;46.63;101274.13;5040685;28;46224;-65
2023/08/08 10:25:23;;;;;;;;;2.25;1.75;;;;;23.82;46.46;101262.38;5042007;28;45978;-65
2023/08/08 10:27:48;;;;;;;;;2.00;2.00;;;;;24.16;46.21;101265.66;5042132;28;45542;-65
2023/08/08 10:30:15;;;;;;;;;2.00;2.00;;;;;24.48;46.73;101254.69;5042205;28;45298;-65
2023/08/08 10:32:48;;;;;;;;;2.00;2.00;;;;;24.78;46.16;101262.59;5041734;28;45207;-65
2023/08/08 10:35:13;;;;;;;;;2.00;2.00;;;;;25.11;46.26;101260.44;5041257;28;45534;-65
2023/08/08 10:37:39;;;;;;;;;3.50;2.00;;;;;25.42;46.06;101259.22;5041793;28;45404;-64
2023/08/08 10:40:06;;;;;;;;;2.25;2.25;;;;;25.70;45.75;101257.31;5041979;28;45248;-64
2023/08/08 10:42:40;;;;;;;;;2.00;2.00;;;;;26.02;45.59;101258.69;5041881;28;45361;-65
2023/08/08 10:45:09;;;;;;;;;2.25;2.25;;;;;26.35;45.95;101251.84;5041740;28;45416;-65
2023/08/08 10:47:35;;;;;;;;;1.00;1.00;;;;;26.67;45.48;101262.09;5041468;28;45631;-65
2023/08/08 10:50:13;;;;;;;;;3.00;3.00;;;;;26.95;45.09;101266.31;5033070;28;45334;-65
2023/08/08 10:52:59;;;;;;;;;2.00;2.00;;;;;27.29;44.42;101257.50;5034657;28;45347;-65
2023/08/08 10:55:34;;;;;;;;;3.00;1.25;;;;;27.56;44.00;101260.78;5020873;28;45236;-64
2023/08/08 10:58:04;;;;;;;;;3.00;3.00;;;;;27.86;43.77;101245.84;5021837;28;45251;-65
2023/08/08 11:00:35;;;;;;;;;2.75;2.50;;;;;28.13;43.75;101246.47;5023286;28;45469;-64
2023/08/08 11:03:01;;;;;;;;;1.00;1.00;;;;;28.38;43.74;101229.13;5029669;28;45480;-64
2023/08/08 11:05:31;;;;;;;;;2.00;2.00;;;;;28.68;43.60;101241.97;5023433;28;46511;-65
2023/08/08 11:07:57;;;;;;;;;2.50;2.00;;;;;28.98;43.40;101242.19;5041340;28;45341;-65
2023/08/08 11:10:23;;;;;;;;;3.00;3.00;;;;;29.21;42.65;101236.66;5023450;28;45656;-65
2023/08/08 11:12:59;;;;;;;;;2.00;2.00;;;;;29.45;42.59;101240.00;5040123;28;45252;-65
2023/08/08 11:15:26;;;;;;;;;2.00;1.50;;;;;29.66;42.19;101239.97;5023262;28;47185;-65
2023/08/08 11:17:52;;;;;;;;;2.00;2.00;;;;;29.87;41.14;101249.91;5040906;28;45376;-65
2023/08/08 11:20:18;;;;;;;;;11.00;11.00;;;;;30.01;41.45;101246.00;5041309;28;45372;-65